createdAt,value
2022-09-09T00:00:22.164Z,1.53
2022-09-09T00:01:38.341Z,1.47
2022-09-09T00:02:41.746Z,1.60
2022-09-09T00:03:55.033Z,1.47
2022-09-09T00:05:03.134Z,1.30
2022-09-09T00:06:22.222Z,1.40
2022-09-09T00:07:40.035Z,1.40
2022-09-09T00:08:41.800Z,1.60
2022-09-09T00:10:20.922Z,1.40
2022-09-09T00:11:42.412Z,1.60
2022-09-09T00:12:53.083Z,2.50
2022-09-09T00:13:58.092Z,1.60
2022-09-09T00:15:06.335Z,1.70
2022-09-09T00:16:25.251Z,1.63
2022-09-09T00:17:45.845Z,0.90
2022-09-09T00:19:08.248Z,1.27
2022-09-09T00:20:20.421Z,3.07
2022-09-09T00:21:33.919Z,2.87
2022-09-09T00:22:37.770Z,2.80
2022-09-09T00:23:44.307Z,2.70
2022-09-09T00:24:48.686Z,1.80
2022-09-09T00:25:59.752Z,2.17
2022-09-09T00:27:14.514Z,3.20
2022-09-09T00:28:26.743Z,2.27
2022-09-09T00:29:44.564Z,2.47
2022-09-09T00:30:50.556Z,3.20
2022-09-09T00:31:58.650Z,2.50
2022-09-09T00:33:16.253Z,2.50
2022-09-09T00:34:22.611Z,1.70
2022-09-09T00:35:28.671Z,2.13
2022-09-09T00:36:34.333Z,1.63
2022-09-09T00:37:37.141Z,1.17
2022-09-09T00:38:44.176Z,1.07
2022-09-09T00:39:53.272Z,1.13
2022-09-09T00:41:16.339Z,1.33
2022-09-09T00:42:27.875Z,1.47
2022-09-09T00:43:31.332Z,0.80
2022-09-09T00:44:36.849Z,1.37
2022-09-09T00:45:53.997Z,1.07
2022-09-09T00:47:33.915Z,0.80
2022-09-09T00:48:58.786Z,1.27
2022-09-09T00:50:19.033Z,1.00
2022-09-09T00:51:51.566Z,0.80
2022-09-09T00:53:23.285Z,0.70
2022-09-09T00:54:33.791Z,0.97
2022-09-09T00:56:17.746Z,1.30
2022-09-09T00:57:34.711Z,1.30
2022-09-09T00:58:37.516Z,0.70
2022-09-09T00:59:51.423Z,1.00
2022-09-09T01:01:22.273Z,0.97
2022-09-09T01:02:28.371Z,1.30
2022-09-09T01:03:54.508Z,1.00
2022-09-09T01:05:06.082Z,1.30
2022-09-09T01:06:32.914Z,1.17
2022-09-09T01:07:37.320Z,1.23
2022-09-09T01:08:54.540Z,1.00
2022-09-09T01:10:04.732Z,1.20
2022-09-09T01:11:15.030Z,1.03
2022-09-09T01:12:24.485Z,1.13
2022-09-09T01:13:36.556Z,2.07
2022-09-09T01:14:38.650Z,1.57
2022-09-09T01:15:42.738Z,1.23
2022-09-09T01:16:46.546Z,1.63
2022-09-09T01:18:11.934Z,1.53
2022-09-09T01:19:25.414Z,0.80
2022-09-09T01:20:38.540Z,1.20
2022-09-09T01:21:56.306Z,1.57
2022-09-09T01:23:18.497Z,1.50
2022-09-09T01:24:43.374Z,1.60
2022-09-09T01:26:06.667Z,1.60
2022-09-09T01:27:10.387Z,1.53
2022-09-09T01:28:17.678Z,1.93
2022-09-09T01:29:21.857Z,1.47
2022-09-09T01:30:24.008Z,1.70
2022-09-09T01:31:38.949Z,1.63
2022-09-09T01:32:52.201Z,2.03
2022-09-09T01:33:53.920Z,1.73
2022-09-09T01:34:55.746Z,1.43
2022-09-09T01:36:08.968Z,1.90
2022-09-09T01:37:13.036Z,1.70
2022-09-09T01:38:15.552Z,2.13
2022-09-09T01:39:18.551Z,1.60
2022-09-09T01:40:20.255Z,1.73
2022-09-09T01:41:22.198Z,1.60
2022-09-09T01:42:23.749Z,1.93
2022-09-09T01:43:26.400Z,1.70
2022-09-09T01:44:29.343Z,1.20
2022-09-09T01:45:32.361Z,1.93
2022-09-09T01:46:34.101Z,1.77
2022-09-09T01:47:37.321Z,1.40
2022-09-09T01:48:40.490Z,2.10
2022-09-09T01:49:42.234Z,1.30
2022-09-09T01:50:43.926Z,1.83
2022-09-09T01:51:50.334Z,1.77
2022-09-09T01:52:59.547Z,1.70
2022-09-09T01:54:02.959Z,1.50
2022-09-09T01:55:05.820Z,1.70
2022-09-09T01:56:37.063Z,2.10
2022-09-09T01:57:55.079Z,2.33
2022-09-09T01:59:10.545Z,2.70
2022-09-09T02:00:15.592Z,2.10
2022-09-09T02:01:44.102Z,1.93
2022-09-09T02:03:01.951Z,2.27
2022-09-09T02:04:29.347Z,2.50
2022-09-09T02:05:38.385Z,3.30
2022-09-09T02:06:41.430Z,2.90
2022-09-09T02:07:59.154Z,2.90
2022-09-09T02:09:04.463Z,3.03
2022-09-09T02:10:36.611Z,3.10
2022-09-09T02:11:39.278Z,2.73
2022-09-09T02:12:45.586Z,2.90
2022-09-09T02:13:49.995Z,2.30
2022-09-09T02:14:57.366Z,2.93
2022-09-09T02:16:05.564Z,2.50
2022-09-09T02:17:11.730Z,2.90
2022-09-09T02:18:18.514Z,3.00
2022-09-09T02:19:28.683Z,2.93
2022-09-09T02:20:35.214Z,3.40
2022-09-09T02:21:37.956Z,3.23
2022-09-09T02:22:43.407Z,3.57
2022-09-09T02:23:48.177Z,3.10
2022-09-09T02:24:54.666Z,2.77
2022-09-09T02:26:00.431Z,3.87
2022-09-09T02:27:08.068Z,3.10
2022-09-09T02:28:12.006Z,2.70
2022-09-09T02:29:17.942Z,3.07
2022-09-09T02:30:21.653Z,3.20
2022-09-09T02:31:26.309Z,2.90
2022-09-09T02:32:31.541Z,2.90
2022-09-09T02:33:43.922Z,2.80
2022-09-09T02:34:51.208Z,2.90
2022-09-09T02:35:54.989Z,3.57
2022-09-09T02:37:00.979Z,3.07
2022-09-09T02:38:09.286Z,3.13
2022-09-09T02:39:12.906Z,3.40
2022-09-09T02:40:17.738Z,3.27
2022-09-09T02:41:29.433Z,3.40
2022-09-09T02:42:31.453Z,3.50
2022-09-09T02:43:34.645Z,3.70
2022-09-09T02:44:38.083Z,3.63
2022-09-09T02:45:51.202Z,3.80
2022-09-09T02:47:04.559Z,3.30
2022-09-09T02:48:29.630Z,3.13
2022-09-09T02:49:40.314Z,2.90
2022-09-09T02:50:58.409Z,3.20
2022-09-09T02:52:06.710Z,3.77
2022-09-09T02:53:18.759Z,3.20
2022-09-09T02:54:32.143Z,2.80
2022-09-09T02:55:46.458Z,2.97
2022-09-09T02:56:57.422Z,2.20
2022-09-09T02:58:00.709Z,1.73
2022-09-09T02:59:06.390Z,1.97
2022-09-09T03:00:08.677Z,2.00
2022-09-09T03:01:10.402Z,2.00
2022-09-09T03:02:13.918Z,2.17
2022-09-09T03:03:17.376Z,1.80
2022-09-09T03:04:20.310Z,1.73
2022-09-09T03:05:22.041Z,2.20
2022-09-09T03:06:24.182Z,2.20
2022-09-09T03:07:26.138Z,2.00
2022-09-09T03:08:28.713Z,2.23
2022-09-09T03:09:31.299Z,1.83
2022-09-09T03:10:34.082Z,2.10
2022-09-09T03:11:36.404Z,2.70
2022-09-09T03:12:37.901Z,2.50
2022-09-09T03:13:39.433Z,2.57
2022-09-09T03:14:42.423Z,2.00
2022-09-09T03:15:44.227Z,2.13
2022-09-09T03:16:45.985Z,3.10
2022-09-09T03:17:51.192Z,2.27
2022-09-09T03:18:53.301Z,2.27
2022-09-09T03:19:56.004Z,2.03
2022-09-09T03:20:58.871Z,2.63
2022-09-09T03:22:01.205Z,2.50
2022-09-09T03:23:03.973Z,2.83
2022-09-09T03:24:06.077Z,3.17
2022-09-09T03:25:08.265Z,2.50
2022-09-09T03:26:09.921Z,2.50
2022-09-09T03:27:11.557Z,2.40
2022-09-09T03:28:13.607Z,2.27
2022-09-09T03:29:15.753Z,2.93
2022-09-09T03:30:17.731Z,2.03
2022-09-09T03:31:20.442Z,1.70
2022-09-09T03:32:27.522Z,2.30
2022-09-09T03:33:30.623Z,2.10
2022-09-09T03:34:32.722Z,2.07
2022-09-09T03:35:34.258Z,1.80
2022-09-09T03:36:37.277Z,2.20
2022-09-09T03:37:40.100Z,1.73
2022-09-09T03:38:43.068Z,2.10
2022-09-09T03:39:45.211Z,1.67
2022-09-09T03:40:56.487Z,1.83
2022-09-09T03:41:58.386Z,1.67
2022-09-09T03:43:00.545Z,1.60
2022-09-09T03:44:02.334Z,2.07
2022-09-09T03:45:11.572Z,1.60
2022-09-09T03:46:13.165Z,2.00
2022-09-09T03:47:14.889Z,1.77
2022-09-09T03:48:19.934Z,1.47
2022-09-09T03:49:23.017Z,1.83
2022-09-09T03:50:24.745Z,1.67
2022-09-09T03:51:27.705Z,1.50
2022-09-09T03:52:29.683Z,1.10
2022-09-09T03:53:31.468Z,1.70
2022-09-09T03:54:32.991Z,1.40
2022-09-09T03:55:34.641Z,1.60
2022-09-09T03:56:36.734Z,1.70
2022-09-09T03:57:38.930Z,2.20
2022-09-09T03:58:41.014Z,2.10
2022-09-09T03:59:42.896Z,1.77
2022-09-09T04:00:46.354Z,2.10
2022-09-09T04:01:48.285Z,2.10
2022-09-09T04:02:50.760Z,1.50
2022-09-09T04:03:53.687Z,1.70
2022-09-09T04:04:55.666Z,2.03
2022-09-09T04:06:02.906Z,1.80
2022-09-09T04:07:07.804Z,1.70
2022-09-09T04:08:10.797Z,2.00
2022-09-09T04:09:12.517Z,1.60
2022-09-09T04:10:14.946Z,1.63
2022-09-09T04:11:17.865Z,1.50
2022-09-09T04:12:19.746Z,1.57
2022-09-09T04:13:21.747Z,1.87
2022-09-09T04:14:23.722Z,1.70
2022-09-09T04:15:25.234Z,1.70
2022-09-09T04:16:27.041Z,1.83
2022-09-09T04:17:29.273Z,1.47
2022-09-09T04:18:31.864Z,2.20
2022-09-09T04:19:34.737Z,2.17
2022-09-09T04:20:37.480Z,2.90
2022-09-09T04:21:40.828Z,1.90
2022-09-09T04:22:42.671Z,2.17
2022-09-09T04:23:44.496Z,1.97
2022-09-09T04:24:48.804Z,1.97
2022-09-09T04:25:55.849Z,1.60
2022-09-09T04:26:57.503Z,2.60
2022-09-09T04:27:59.384Z,1.70
2022-09-09T04:29:01.542Z,1.57
2022-09-09T04:30:03.966Z,2.20
2022-09-09T04:31:13.013Z,1.80
2022-09-09T04:32:14.943Z,2.10
2022-09-09T04:33:18.649Z,2.30
2022-09-09T04:34:20.659Z,2.77
2022-09-09T04:35:22.208Z,2.43
2022-09-09T04:36:24.175Z,2.60
2022-09-09T04:37:26.772Z,2.03
2022-09-09T04:38:28.288Z,1.90
2022-09-09T04:39:30.618Z,2.20
2022-09-09T04:40:32.767Z,2.03
2022-09-09T04:41:34.534Z,2.10
2022-09-09T04:42:38.943Z,2.90
2022-09-09T04:43:40.642Z,2.30
2022-09-09T04:44:42.514Z,2.40
2022-09-09T04:45:48.586Z,2.67
2022-09-09T04:46:50.479Z,2.60
2022-09-09T04:47:52.560Z,2.17
2022-09-09T04:48:55.046Z,1.80
2022-09-09T04:49:57.729Z,2.40
2022-09-09T04:51:00.995Z,2.40
2022-09-09T04:52:03.771Z,2.07
2022-09-09T04:53:06.149Z,2.60
2022-09-09T04:54:08.361Z,2.30
2022-09-09T04:55:10.891Z,2.17
2022-09-09T04:56:15.771Z,2.30
2022-09-09T04:57:18.858Z,2.20
2022-09-09T04:58:23.439Z,1.80
2022-09-09T04:59:26.638Z,1.83
2022-09-09T05:00:28.483Z,2.27
2022-09-09T05:01:30.148Z,2.17
2022-09-09T05:02:33.204Z,1.90
2022-09-09T05:03:38.895Z,1.80
2022-09-09T05:04:40.610Z,2.47
2022-09-09T05:05:42.136Z,2.07
2022-09-09T05:06:44.126Z,2.00
2022-09-09T05:07:45.737Z,2.13
2022-09-09T05:08:47.384Z,1.93
2022-09-09T05:09:50.795Z,2.30
2022-09-09T05:10:53.791Z,2.00
2022-09-09T05:11:55.934Z,2.70
2022-09-09T05:12:57.639Z,2.30
2022-09-09T05:13:59.233Z,2.93
2022-09-09T05:15:00.751Z,2.03
2022-09-09T05:16:02.568Z,2.10
2022-09-09T05:17:04.821Z,1.80
2022-09-09T05:18:06.415Z,2.20
2022-09-09T05:19:10.638Z,2.80
2022-09-09T05:20:17.357Z,2.03
2022-09-09T05:21:21.827Z,2.33
2022-09-09T05:22:24.636Z,2.23
2022-09-09T05:23:26.563Z,2.03
2022-09-09T05:24:28.755Z,2.50
2022-09-09T05:25:30.856Z,2.40
2022-09-09T05:26:33.376Z,2.10
2022-09-09T05:27:35.484Z,2.50
2022-09-09T05:28:39.870Z,2.30
2022-09-09T05:29:44.318Z,2.00
2022-09-09T05:30:46.290Z,2.03
2022-09-09T05:31:51.353Z,2.03
2022-09-09T05:32:55.721Z,2.20
2022-09-09T05:33:57.382Z,2.20
2022-09-09T05:34:59.980Z,1.93
2022-09-09T05:36:04.930Z,2.03
2022-09-09T05:37:07.895Z,1.80
2022-09-09T05:38:09.450Z,2.20
2022-09-09T05:39:13.052Z,2.07
2022-09-09T05:40:15.173Z,1.93
2022-09-09T05:41:19.050Z,1.50
2022-09-09T05:42:22.497Z,1.97
2022-09-09T05:43:25.279Z,1.90
2022-09-09T05:44:28.863Z,1.40
2022-09-09T05:45:30.477Z,2.00
2022-09-09T05:46:33.357Z,1.83
2022-09-09T05:47:35.790Z,2.10
2022-09-09T05:48:42.418Z,2.00
2022-09-09T05:49:44.620Z,2.00
2022-09-09T05:50:54.336Z,2.33
2022-09-09T05:51:56.173Z,1.80
2022-09-09T05:53:00.360Z,1.20
2022-09-09T05:54:01.925Z,2.67
2022-09-09T05:55:05.514Z,1.90
2022-09-09T05:56:16.672Z,2.47
2022-09-09T05:57:20.377Z,1.77
2022-09-09T05:58:24.646Z,1.40
2022-09-09T05:59:26.293Z,1.40
2022-09-09T06:00:28.475Z,1.63
2022-09-09T06:01:34.220Z,1.20
2022-09-09T06:02:37.993Z,1.70
2022-09-09T06:03:41.395Z,2.10
2022-09-09T06:04:43.953Z,1.60
2022-09-09T06:05:47.111Z,1.50
2022-09-09T06:06:49.806Z,1.43
2022-09-09T06:07:54.603Z,1.70
2022-09-09T06:09:01.126Z,1.67
2022-09-09T06:10:02.992Z,1.70
2022-09-09T06:11:06.196Z,1.40
2022-09-09T06:12:08.989Z,1.87
2022-09-09T06:13:12.141Z,1.80
2022-09-09T06:14:14.478Z,2.10
2022-09-09T06:15:16.330Z,1.90
2022-09-09T06:16:20.258Z,1.50
2022-09-09T06:17:22.279Z,2.10
2022-09-09T06:18:23.981Z,1.77
2022-09-09T06:19:27.637Z,1.50
2022-09-09T06:20:31.579Z,1.47
2022-09-09T06:21:38.291Z,1.90
2022-09-09T06:22:42.387Z,1.50
2022-09-09T06:23:45.802Z,1.63
2022-09-09T06:24:48.295Z,1.60
2022-09-09T06:25:50.183Z,1.70
2022-09-09T06:26:51.910Z,1.33
2022-09-09T06:27:53.843Z,1.30
2022-09-09T06:28:56.647Z,1.30
2022-09-09T06:29:58.567Z,1.80
2022-09-09T06:31:01.785Z,2.10
2022-09-09T06:32:05.289Z,1.67
2022-09-09T06:33:07.463Z,1.60
2022-09-09T06:34:11.527Z,1.43
2022-09-09T06:35:14.582Z,1.23
2022-09-09T06:36:24.961Z,1.10
2022-09-09T06:37:27.856Z,1.70
2022-09-09T06:38:29.836Z,1.10
2022-09-09T06:39:32.752Z,1.40
2022-09-09T06:40:37.359Z,1.40
2022-09-09T06:41:39.621Z,1.30
2022-09-09T06:42:41.552Z,1.30
2022-09-09T06:43:48.607Z,1.20
2022-09-09T06:44:50.378Z,0.80
2022-09-09T06:45:56.857Z,1.40
2022-09-09T06:46:58.630Z,1.30
2022-09-09T06:48:00.732Z,1.60
2022-09-09T06:49:03.477Z,1.40
2022-09-09T06:50:06.778Z,1.17
2022-09-09T06:51:15.134Z,1.60
2022-09-09T06:52:19.475Z,1.30
2022-09-09T06:53:23.241Z,1.37
2022-09-09T06:54:26.051Z,1.50
2022-09-09T06:55:27.790Z,1.27
2022-09-09T06:56:31.994Z,1.03
2022-09-09T06:57:37.348Z,1.77
2022-09-09T06:58:44.342Z,1.40
2022-09-09T06:59:45.935Z,0.93
2022-09-09T07:00:47.811Z,0.90
2022-09-09T07:01:53.565Z,1.10
2022-09-09T07:02:59.850Z,1.17
2022-09-09T07:04:03.175Z,1.13
2022-09-09T07:05:05.464Z,1.20
2022-09-09T07:06:08.444Z,1.13
2022-09-09T07:07:13.280Z,1.13
2022-09-09T07:08:16.178Z,1.27
2022-09-09T07:09:20.040Z,1.30
2022-09-09T07:10:21.766Z,1.40
2022-09-09T07:11:28.111Z,1.33
2022-09-09T07:12:29.937Z,1.40
2022-09-09T07:13:32.563Z,1.43
2022-09-09T07:14:35.495Z,1.20
2022-09-09T07:15:37.283Z,1.00
2022-09-09T07:16:39.779Z,1.83
2022-09-09T07:17:41.858Z,1.33
2022-09-09T07:18:45.053Z,1.03
2022-09-09T07:19:46.869Z,0.77
2022-09-09T07:20:58.991Z,0.80
2022-09-09T07:22:00.782Z,0.80
2022-09-09T07:23:02.406Z,0.97
2022-09-09T07:24:06.129Z,0.97
2022-09-09T07:25:09.089Z,0.80
2022-09-09T07:26:16.398Z,0.90
2022-09-09T07:27:17.945Z,0.80
2022-09-09T07:28:21.452Z,0.83
2022-09-09T07:29:23.023Z,0.77
2022-09-09T07:30:27.738Z,0.80
2022-09-09T07:31:35.452Z,0.70
2022-09-09T07:32:37.335Z,1.10
2022-09-09T07:33:39.230Z,1.10
2022-09-09T07:34:41.002Z,0.87
2022-09-09T07:35:42.965Z,0.90
2022-09-09T07:36:45.261Z,1.27
2022-09-09T07:37:50.871Z,1.03
2022-09-09T07:38:55.711Z,1.57
2022-09-09T07:39:57.287Z,1.00
2022-09-09T07:41:12.780Z,0.90
2022-09-09T07:42:16.136Z,1.30
2022-09-09T07:43:20.096Z,1.07
2022-09-09T07:44:24.358Z,0.83
2022-09-09T07:45:26.240Z,0.80
2022-09-09T07:46:29.020Z,1.00
2022-09-09T07:47:30.771Z,1.13
2022-09-09T07:48:34.872Z,0.90
2022-09-09T07:49:36.437Z,1.10
2022-09-09T07:50:40.695Z,1.07
2022-09-09T07:51:45.509Z,0.80
2022-09-09T07:52:47.119Z,1.13
2022-09-09T07:53:49.992Z,0.93
2022-09-09T07:54:51.532Z,0.73
2022-09-09T07:55:54.696Z,0.70
2022-09-09T07:56:56.223Z,1.00
2022-09-09T07:57:59.020Z,1.03
2022-09-09T07:59:01.098Z,0.90
2022-09-09T08:00:04.901Z,0.70
2022-09-09T08:01:31.425Z,1.00
2022-09-09T08:02:32.941Z,0.90
2022-09-09T08:03:34.504Z,1.20
2022-09-09T08:04:36.422Z,0.90
2022-09-09T08:05:41.242Z,1.07
2022-09-09T08:06:45.342Z,0.90
2022-09-09T08:07:47.583Z,1.33
2022-09-09T08:08:52.373Z,1.10
2022-09-09T08:09:56.625Z,0.97
2022-09-09T08:11:08.461Z,0.77
2022-09-09T08:12:12.038Z,0.70
2022-09-09T08:13:18.238Z,1.30
2022-09-09T08:14:20.670Z,0.70
2022-09-09T08:15:23.194Z,1.00
2022-09-09T08:16:31.565Z,1.23
2022-09-09T08:17:33.911Z,1.00
2022-09-09T08:18:36.376Z,1.13
2022-09-09T08:19:38.166Z,1.40
2022-09-09T08:20:40.163Z,1.03
2022-09-09T08:21:43.431Z,0.97
2022-09-09T08:22:45.126Z,1.63
2022-09-09T08:23:48.362Z,1.10
2022-09-09T08:24:50.287Z,0.90
2022-09-09T08:25:51.954Z,1.13
2022-09-09T08:26:54.616Z,0.97
2022-09-09T08:27:56.839Z,1.00
2022-09-09T08:29:00.508Z,1.10
2022-09-09T08:30:02.129Z,0.93
2022-09-09T08:31:08.764Z,1.10
2022-09-09T08:32:10.706Z,1.07
2022-09-09T08:33:13.414Z,1.87
2022-09-09T08:34:15.324Z,1.30
2022-09-09T08:35:19.289Z,1.33
2022-09-09T08:36:23.798Z,1.20
2022-09-09T08:37:25.993Z,1.40
2022-09-09T08:38:28.568Z,0.97
2022-09-09T08:39:30.389Z,1.43
2022-09-09T08:40:38.410Z,1.40
2022-09-09T08:42:12.731Z,1.90
2022-09-09T08:43:16.013Z,1.17
2022-09-09T08:44:39.153Z,1.27
2022-09-09T08:45:51.491Z,1.50
2022-09-09T08:47:07.390Z,1.27
2022-09-09T08:48:20.695Z,1.57
2022-09-09T08:49:43.680Z,1.20
2022-09-09T08:50:47.702Z,1.00
2022-09-09T08:51:50.749Z,1.33
2022-09-09T08:52:55.786Z,1.53
2022-09-09T08:54:04.166Z,1.03
2022-09-09T08:55:46.554Z,1.17
2022-09-09T08:56:49.113Z,1.43
2022-09-09T08:57:53.725Z,1.03
2022-09-09T08:58:57.958Z,1.10
2022-09-09T09:00:01.021Z,1.30
2022-09-09T09:01:35.650Z,1.23
2022-09-09T09:03:11.214Z,1.20
2022-09-09T09:04:56.767Z,1.43
2022-09-09T09:06:35.487Z,1.20
2022-09-09T09:07:52.966Z,1.60
2022-09-09T09:09:09.391Z,1.50
2022-09-09T09:10:42.696Z,1.77
2022-09-09T09:12:02.138Z,1.37
2022-09-09T09:13:04.520Z,1.23
2022-09-09T09:15:42.759Z,1.33
2022-09-09T09:17:06.621Z,1.30
2022-09-09T09:18:13.709Z,1.13
2022-09-09T09:19:17.867Z,1.30
2022-09-09T09:20:28.214Z,1.63
2022-09-09T09:21:37.849Z,1.77
2022-09-09T09:22:49.425Z,1.37
2022-09-09T09:24:00.142Z,1.00
2022-09-09T09:25:21.490Z,1.70
2022-09-09T09:26:34.142Z,1.10
2022-09-09T09:27:42.635Z,2.03
2022-09-09T09:28:46.457Z,1.57
2022-09-09T09:30:21.084Z,1.57
2022-09-09T09:31:15.074Z,1.70
2022-09-09T09:32:21.401Z,2.57
2022-09-09T09:33:34.230Z,1.87
2022-09-09T09:34:36.214Z,1.87
2022-09-09T09:35:42.973Z,1.93
2022-09-09T09:36:53.625Z,2.07
2022-09-09T09:40:59.696Z,1.40
2022-09-09T09:42:12.603Z,1.27
2022-09-09T09:43:28.971Z,1.70
2022-09-09T09:44:34.183Z,1.13
2022-09-09T09:46:06.786Z,0.90
2022-09-09T09:47:29.110Z,0.93
2022-09-09T09:48:32.852Z,1.20
2022-09-09T09:49:34.526Z,1.03
2022-09-09T09:50:41.900Z,1.27
2022-09-09T09:51:44.721Z,1.43
2022-09-09T09:52:56.788Z,1.53
2022-09-09T09:54:23.997Z,1.60
2022-09-09T09:55:27.161Z,1.17
2022-09-09T09:56:30.601Z,0.90
2022-09-09T09:57:34.216Z,1.70
2022-09-09T09:58:51.817Z,1.50
2022-09-09T10:00:10.448Z,1.33
2022-09-09T10:01:34.673Z,1.40
2022-09-09T10:02:44.311Z,1.60
2022-09-09T10:04:03.932Z,1.43
2022-09-09T10:05:14.368Z,1.30
2022-09-09T10:06:16.555Z,2.03
2022-09-09T10:07:23.267Z,1.60
2022-09-09T10:08:27.310Z,1.33
2022-09-09T10:09:34.100Z,1.50
2022-09-09T10:10:36.404Z,1.40
2022-09-09T10:11:55.934Z,2.03
2022-09-09T10:13:18.949Z,1.57
2022-09-09T10:14:41.094Z,1.00
2022-09-09T10:15:57.121Z,1.20
2022-09-09T10:17:29.159Z,1.30
2022-09-09T10:18:51.696Z,1.23
2022-09-09T10:20:00.842Z,1.13
2022-09-09T10:21:21.686Z,1.13
2022-09-09T10:22:31.494Z,1.10
2022-09-09T10:23:56.148Z,1.20
2022-09-09T10:25:25.533Z,1.13
2022-09-09T10:26:46.632Z,1.53
2022-09-09T10:28:06.221Z,1.60
2022-09-09T10:29:44.998Z,1.03
2022-09-09T10:31:08.401Z,0.87
2022-09-09T10:32:47.369Z,1.10
2022-09-09T10:34:02.474Z,1.37
2022-09-09T10:35:14.183Z,1.00
2022-09-09T10:36:16.123Z,1.23
2022-09-09T10:37:36.384Z,1.00
2022-09-09T10:38:44.390Z,1.27
2022-09-09T10:39:46.226Z,1.67
2022-09-09T10:40:57.466Z,1.30
2022-09-09T10:42:05.256Z,0.93
2022-09-09T10:43:35.895Z,1.47
2022-09-09T10:45:12.579Z,1.77
2022-09-09T10:46:22.040Z,1.27
2022-09-09T10:48:12.928Z,1.10
2022-09-09T10:49:32.720Z,1.53
2022-09-09T10:51:01.317Z,1.40
2022-09-09T10:52:30.913Z,0.60
2022-09-09T10:53:38.898Z,1.67
2022-09-09T10:55:13.750Z,1.33
2022-09-09T10:56:19.690Z,1.57
2022-09-09T10:57:38.173Z,1.30
2022-09-09T10:58:48.490Z,1.57
2022-09-09T10:59:58.081Z,1.60
2022-09-09T11:01:10.598Z,1.50
2022-09-09T11:02:28.955Z,1.70
2022-09-09T11:03:34.682Z,1.13
2022-09-09T11:04:44.430Z,1.30
2022-09-09T11:05:55.241Z,1.30
2022-09-09T11:06:57.597Z,1.10
2022-09-09T11:08:32.598Z,1.23
2022-09-09T11:09:42.861Z,1.10
2022-09-09T11:11:08.894Z,1.07
2022-09-09T11:12:16.871Z,1.00
2022-09-09T11:13:27.455Z,1.07
2022-09-09T11:14:46.536Z,0.90
2022-09-09T11:15:55.895Z,0.77
2022-09-09T11:17:07.767Z,0.70
2022-09-09T11:18:19.122Z,0.70
2022-09-09T11:19:27.016Z,0.80
2022-09-09T11:20:29.683Z,0.90
2022-09-09T11:21:39.471Z,0.87
2022-09-09T11:22:52.290Z,0.90
2022-09-09T11:24:00.245Z,0.80
2022-09-09T11:25:13.793Z,0.80
2022-09-09T11:26:30.857Z,0.60
2022-09-09T11:27:40.629Z,0.70
2022-09-09T11:29:04.893Z,1.07
2022-09-09T11:30:53.664Z,0.70
2022-09-09T11:32:01.072Z,0.93
2022-09-09T11:33:26.561Z,0.90
2022-09-09T11:35:04.329Z,0.83
2022-09-09T11:36:34.459Z,0.90
2022-09-09T11:37:39.122Z,0.60
2022-09-09T11:38:48.653Z,0.80
2022-09-09T11:40:06.347Z,0.70
2022-09-09T11:41:11.168Z,1.00
2022-09-09T11:42:26.308Z,0.70
2022-09-09T11:43:33.056Z,0.73
2022-09-09T11:45:42.941Z,1.43
2022-09-09T11:46:53.325Z,0.83
2022-09-09T11:47:57.692Z,1.00
2022-09-09T11:49:04.747Z,0.83
2022-09-09T11:50:10.901Z,0.50
2022-09-09T11:51:22.015Z,1.07
2022-09-09T11:52:46.977Z,0.70
2022-09-09T11:54:04.324Z,1.00
2022-09-09T11:55:13.570Z,0.90
2022-09-09T11:56:27.185Z,0.70
2022-09-09T11:57:39.398Z,0.90
2022-09-09T11:58:54.717Z,0.60
2022-09-09T11:59:57.571Z,0.73
2022-09-09T12:00:59.672Z,0.80
2022-09-09T12:02:14.356Z,0.80
2022-09-09T12:03:44.715Z,0.60
2022-09-09T12:05:21.539Z,0.90
2022-09-09T12:06:50.107Z,0.83
2022-09-09T12:08:00.314Z,1.10
2022-09-09T12:09:24.362Z,0.93
2022-09-09T12:10:43.521Z,0.63
2022-09-09T12:11:46.507Z,0.87
2022-09-09T12:12:48.902Z,0.97
2022-09-09T12:13:55.567Z,0.87
2022-09-09T12:15:04.880Z,1.10
2022-09-09T12:16:09.735Z,0.90
2022-09-09T12:17:23.899Z,0.70
2022-09-09T12:18:45.506Z,0.60
2022-09-09T12:19:48.334Z,0.93
2022-09-09T12:21:03.746Z,0.77
2022-09-09T12:22:21.296Z,1.53
2022-09-09T12:23:51.394Z,1.13
2022-09-09T12:25:23.033Z,0.80
2022-09-09T12:26:34.595Z,1.00
2022-09-09T12:27:54.425Z,1.00
2022-09-09T12:29:07.852Z,1.10
2022-09-09T12:30:16.998Z,0.70
2022-09-09T12:31:45.732Z,0.90
2022-09-09T12:32:47.669Z,0.70
2022-09-09T12:33:49.701Z,0.97
2022-09-09T12:34:59.638Z,1.00
2022-09-09T12:36:04.159Z,0.87
2022-09-09T12:37:36.820Z,0.70
2022-09-09T12:38:42.525Z,0.83
2022-09-09T12:39:54.806Z,0.87
2022-09-09T12:40:59.619Z,0.90
2022-09-09T12:42:01.612Z,0.93
2022-09-09T12:43:23.019Z,0.83
2022-09-09T12:44:27.063Z,0.93
2022-09-09T12:45:34.449Z,1.00
2022-09-09T12:46:43.771Z,0.80
2022-09-09T12:48:08.610Z,0.60
2022-09-09T12:49:43.469Z,1.40
2022-09-09T12:50:53.562Z,1.00
2022-09-09T12:51:57.306Z,0.70
2022-09-09T12:53:22.092Z,0.90
2022-09-09T12:54:26.570Z,1.10
2022-09-09T12:55:37.086Z,0.97
2022-09-09T12:56:40.781Z,0.83
2022-09-09T12:57:44.285Z,0.70
2022-09-09T12:58:48.903Z,1.17
2022-09-09T12:59:50.629Z,1.13
2022-09-09T13:02:22.872Z,1.07
2022-09-09T13:03:26.055Z,0.90
2022-09-09T13:04:29.368Z,1.20
2022-09-09T13:05:40.256Z,0.60
2022-09-09T13:06:42.395Z,1.10
2022-09-09T13:07:44.696Z,1.23
2022-09-09T13:08:46.336Z,1.10
2022-09-09T13:09:50.221Z,0.97
2022-09-09T13:11:04.161Z,0.80
2022-09-09T13:12:14.678Z,1.10
2022-09-09T13:13:24.081Z,0.80
2022-09-09T13:14:38.477Z,1.60
2022-09-09T13:15:42.908Z,1.20
2022-09-09T13:17:06.079Z,0.63
2022-09-09T13:18:14.429Z,1.20
2022-09-09T13:19:18.461Z,0.93
2022-09-09T13:20:21.686Z,1.10
2022-09-09T13:21:36.270Z,0.87
2022-09-09T13:22:41.829Z,0.97
2022-09-09T13:23:50.573Z,1.00
2022-09-09T13:25:17.899Z,0.80
2022-09-09T13:26:28.202Z,0.90
2022-09-09T13:27:31.951Z,0.73
2022-09-09T13:28:34.594Z,1.00
2022-09-09T13:29:38.510Z,0.83
2022-09-09T13:30:42.262Z,0.70
2022-09-09T13:31:44.259Z,1.00
2022-09-09T13:32:46.110Z,0.63
2022-09-09T13:33:47.828Z,0.83
2022-09-09T13:34:58.727Z,1.50
2022-09-09T13:36:12.469Z,0.90
2022-09-09T13:37:38.560Z,1.03
2022-09-09T13:38:58.184Z,1.20
2022-09-09T13:40:00.828Z,1.23
2022-09-09T13:41:11.603Z,0.90
2022-09-09T13:42:26.602Z,1.30
2022-09-09T13:43:29.819Z,1.20
2022-09-09T13:44:36.558Z,1.07
2022-09-09T13:45:40.131Z,1.13
2022-09-09T13:46:42.240Z,1.00
2022-09-09T13:47:44.658Z,1.47
2022-09-09T13:48:55.703Z,1.33
2022-09-09T13:49:57.726Z,1.33
2022-09-09T13:51:02.679Z,1.20
2022-09-09T13:52:14.813Z,1.43
2022-09-09T13:53:16.642Z,1.37
2022-09-09T13:54:20.945Z,1.50
2022-09-09T13:55:24.805Z,1.30
2022-09-09T13:56:26.393Z,1.87
2022-09-09T13:57:28.235Z,1.20
2022-09-09T13:58:30.406Z,0.87
2022-09-09T14:00:56.930Z,0.90
2022-09-09T14:01:59.292Z,0.83
2022-09-09T14:03:03.287Z,1.23
2022-09-09T14:04:07.802Z,0.57
2022-09-09T14:05:10.899Z,1.00
2022-09-09T14:06:12.925Z,0.83
2022-09-09T14:07:16.552Z,0.73
2022-09-09T14:08:24.965Z,0.70
2022-09-09T14:09:26.860Z,0.90
2022-09-09T14:10:29.151Z,0.60
2022-09-09T14:11:31.113Z,0.90
2022-09-09T14:12:33.023Z,1.13
2022-09-09T14:13:35.810Z,0.70
2022-09-09T14:14:38.896Z,0.80
2022-09-09T14:15:40.950Z,0.80
2022-09-09T14:16:42.611Z,0.90
2022-09-09T14:17:45.119Z,0.90
2022-09-09T14:18:47.858Z,0.90
2022-09-09T14:19:50.448Z,0.70
2022-09-09T14:20:52.740Z,0.90
2022-09-09T14:21:54.661Z,0.50
2022-09-09T14:23:03.251Z,1.20
2022-09-09T14:24:06.023Z,1.03
2022-09-09T14:25:08.413Z,0.60
2022-09-09T14:26:10.248Z,0.90
2022-09-09T14:27:12.148Z,0.80
2022-09-09T14:28:15.434Z,0.70
2022-09-09T14:29:17.295Z,0.90
2022-09-09T14:30:19.457Z,0.60
2022-09-09T14:31:24.996Z,0.70
2022-09-09T14:32:26.938Z,0.77
2022-09-09T14:33:30.608Z,1.20
2022-09-09T14:34:33.377Z,0.97
2022-09-09T14:35:35.439Z,0.90
2022-09-09T14:36:37.121Z,0.90
2022-09-09T14:37:40.100Z,1.40
2022-09-09T14:38:42.553Z,0.90
2022-09-09T14:39:45.174Z,0.97
2022-09-09T14:40:47.922Z,0.63
2022-09-09T14:41:49.475Z,0.80
2022-09-09T14:42:51.143Z,0.60
2022-09-09T14:43:53.000Z,0.83
2022-09-09T14:44:54.719Z,0.57
2022-09-09T14:45:56.603Z,0.70
2022-09-09T14:46:59.528Z,0.70
2022-09-09T14:48:01.272Z,1.03
2022-09-09T14:49:03.180Z,0.90
2022-09-09T14:50:06.243Z,0.83
2022-09-09T14:51:16.700Z,0.80
2022-09-09T14:52:18.354Z,0.60
2022-09-09T14:53:19.850Z,0.73
2022-09-09T14:54:22.273Z,0.73
2022-09-09T14:55:23.789Z,1.03
2022-09-09T14:56:28.612Z,0.70
2022-09-09T14:57:30.167Z,0.70
2022-09-09T14:58:32.446Z,0.80
2022-09-09T14:59:35.512Z,0.73
2022-09-09T15:00:37.277Z,0.73
2022-09-09T15:01:39.051Z,0.87
2022-09-09T15:02:40.796Z,1.33
2022-09-09T15:03:58.939Z,1.57
2022-09-09T15:05:00.861Z,0.73
2022-09-09T15:06:13.129Z,0.93
2022-09-09T15:07:14.644Z,1.37
2022-09-09T15:08:17.052Z,2.90
2022-09-09T15:09:18.615Z,1.57
2022-09-09T15:10:20.196Z,1.47
2022-09-09T15:11:23.044Z,1.40